createdAt,value
2016-09-23T00:00:40.847Z,0
2016-09-23T00:01:40.781Z,0
2016-09-23T00:02:40.543Z,0
2016-09-23T00:03:40.088Z,0
2016-09-23T00:04:40.465Z,0
2016-09-23T00:05:40.466Z,0
2016-09-23T00:06:40.031Z,0
2016-09-23T00:07:39.993Z,0
2016-09-23T00:08:40.250Z,0
2016-09-23T00:09:40.241Z,0
2016-09-23T00:10:39.856Z,0
2016-09-23T00:11:39.806Z,0
2016-09-23T00:12:40.067Z,0
2016-09-23T00:13:40.022Z,0
2016-09-23T00:14:39.668Z,0
2016-09-23T00:15:39.511Z,0
2016-09-23T00:16:39.240Z,0
2016-09-23T00:17:40.057Z,0
2016-09-23T00:18:39.470Z,0
2016-09-23T00:19:39.425Z,0
2016-09-23T00:20:39.379Z,0
2016-09-23T00:21:39.634Z,0
2016-09-23T00:22:39.501Z,0
2016-09-23T00:23:39.224Z,0
2016-09-23T00:24:39.188Z,0
2016-09-23T00:25:39.139Z,0
2016-09-23T00:26:38.831Z,0
2016-09-23T00:27:39.348Z,0
2016-09-23T00:28:39.743Z,0
2016-09-23T00:29:39.465Z,0
2016-09-23T00:30:39.205Z,0
2016-09-23T00:31:39.155Z,0
2016-09-23T00:32:38.808Z,0
2016-09-23T00:33:38.748Z,0
2016-09-23T00:34:38.692Z,0
2016-09-23T00:35:38.956Z,0
2016-09-23T00:36:39.111Z,0
2016-09-23T00:37:38.861Z,0
2016-09-23T00:38:38.824Z,0
2016-09-23T00:39:38.693Z,0
2016-09-23T00:40:38.667Z,0
2016-09-23T00:41:38.696Z,0
2016-09-23T00:42:38.349Z,0
2016-09-23T00:43:38.271Z,0
2016-09-23T00:44:38.212Z,0
2016-09-23T00:45:38.229Z,0
2016-09-23T00:46:38.429Z,0
2016-09-23T00:47:38.379Z,0
2016-09-23T00:48:38.026Z,0
2016-09-23T00:49:38.285Z,0
2016-09-23T00:50:37.934Z,0
2016-09-23T00:51:38.384Z,0
2016-09-23T00:52:52.743Z,0
2016-09-23T00:53:38.091Z,0
2016-09-23T00:54:38.073Z,0
2016-09-23T00:55:37.382Z,0
2016-09-23T00:56:37.984Z,0
2016-09-23T00:57:37.965Z,0
2016-09-23T00:58:37.524Z,0
2016-09-23T00:59:37.801Z,0
2016-09-23T01:00:37.965Z,0
2016-09-23T01:01:37.612Z,0
2016-09-23T01:02:37.863Z,0
2016-09-23T01:03:37.502Z,0
2016-09-23T01:04:37.259Z,0
2016-09-23T01:05:36.584Z,0
2016-09-23T01:06:37.671Z,0
2016-09-23T01:07:37.427Z,0
2016-09-23T01:08:37.264Z,0
2016-09-23T01:09:37.016Z,0
2016-09-23T01:10:36.851Z,0
2016-09-23T01:11:36.914Z,0
2016-09-23T01:12:36.885Z,0
2016-09-23T01:13:36.863Z,0
2016-09-23T01:14:36.779Z,0
2016-09-23T01:15:36.452Z,0
2016-09-23T01:16:37.014Z,0
2016-09-23T01:17:37.187Z,0
2016-09-23T01:18:36.953Z,0
2016-09-23T01:19:36.576Z,0
2016-09-23T01:20:36.485Z,0
2016-09-23T01:21:36.956Z,0
2016-09-23T01:22:36.706Z,0
2016-09-23T01:23:36.102Z,0
2016-09-23T01:24:36.314Z,0
2016-09-23T01:25:36.237Z,0
2016-09-23T01:26:36.500Z,0
2016-09-23T01:27:36.672Z,0
2016-09-23T01:28:36.423Z,0
2016-09-23T01:29:36.224Z,0
2016-09-23T01:30:36.513Z,0
2016-09-23T01:31:36.251Z,0
2016-09-23T01:32:35.913Z,0
2016-09-23T01:33:35.863Z,0
2016-09-23T01:34:36.337Z,0
2016-09-23T01:35:36.041Z,0
2016-09-23T01:36:36.921Z,0
2016-09-23T01:37:35.866Z,0
2016-09-23T01:38:35.623Z,0
2016-09-23T01:39:35.563Z,0
2016-09-23T01:40:35.518Z,0
2016-09-23T01:41:35.183Z,0
2016-09-23T01:42:35.735Z,0
2016-09-23T01:43:35.687Z,0
2016-09-23T01:44:35.663Z,0
2016-09-23T01:45:35.623Z,0
2016-09-23T01:46:35.236Z,0
2016-09-23T01:47:35.505Z,0
2016-09-23T01:48:35.149Z,0
2016-09-23T01:49:35.287Z,0
2016-09-23T01:50:35.567Z,0
2016-09-23T01:51:35.042Z,0
2016-09-23T01:52:35.445Z,0
2016-09-23T01:53:34.905Z,0
2016-09-23T01:54:35.355Z,0
2016-09-23T01:55:34.484Z,0
2016-09-23T01:56:34.730Z,0
2016-09-23T01:57:35.214Z,0
2016-09-23T01:58:35.163Z,0
2016-09-23T01:59:34.600Z,0
2016-09-23T02:00:34.891Z,0
2016-09-23T02:01:34.508Z,0
2016-09-23T02:02:35.009Z,0
2016-09-23T02:03:34.997Z,0
2016-09-23T02:04:34.358Z,0
2016-09-23T02:05:34.610Z,0
2016-09-23T02:06:34.580Z,0
2016-09-23T02:07:34.520Z,0
2016-09-23T02:08:34.465Z,0
2016-09-23T02:09:34.636Z,0
2016-09-23T02:10:34.572Z,0
2016-09-23T02:11:34.005Z,0
2016-09-23T02:12:34.687Z,0
2016-09-23T02:13:34.044Z,0
2016-09-23T02:14:33.324Z,0
2016-09-23T02:15:33.817Z,0
2016-09-23T02:16:34.080Z,0
2016-09-23T02:17:34.136Z,0
2016-09-23T02:18:34.346Z,0
2016-09-23T02:19:33.949Z,0
2016-09-23T02:20:33.995Z,0
2016-09-23T02:21:33.935Z,0
2016-09-23T02:22:33.690Z,0
2016-09-23T02:23:34.194Z,0
2016-09-23T02:24:33.610Z,0
2016-09-23T02:25:33.663Z,0
2016-09-23T02:26:33.275Z,0
2016-09-23T02:27:33.443Z,0
2016-09-23T02:28:33.690Z,0
2016-09-23T02:29:33.340Z,0
2016-09-23T02:30:32.799Z,0
2016-09-23T02:31:32.751Z,0
2016-09-23T02:32:33.501Z,0
2016-09-23T02:33:33.267Z,0
2016-09-23T02:34:33.621Z,0
2016-09-23T02:35:32.879Z,0
2016-09-23T02:36:33.645Z,0
2016-09-23T02:37:32.810Z,0
2016-09-23T02:38:33.026Z,0
2016-09-23T02:39:33.005Z,0
2016-09-23T02:40:32.648Z,0
2016-09-23T02:41:32.573Z,0
2016-09-23T02:42:33.026Z,0
2016-09-23T02:43:32.767Z,0
2016-09-23T02:44:32.414Z,0
2016-09-23T02:45:32.867Z,0
2016-09-23T02:46:32.020Z,0
2016-09-23T02:47:32.590Z,0
2016-09-23T02:48:32.518Z,0
2016-09-23T02:49:32.585Z,0
2016-09-23T02:50:32.333Z,0
2016-09-23T02:51:32.401Z,0
2016-09-23T02:52:32.038Z,0
2016-09-23T02:53:32.527Z,0
2016-09-23T02:54:33.444Z,0
2016-09-23T02:55:32.384Z,0
2016-09-23T02:56:31.837Z,0
2016-09-23T02:57:31.877Z,0
2016-09-23T02:58:31.438Z,0
2016-09-23T02:59:32.202Z,0
2016-09-23T03:00:32.073Z,0
2016-09-23T03:01:31.905Z,0
2016-09-23T03:02:31.840Z,0
2016-09-23T03:03:31.800Z,0
2016-09-23T03:04:31.788Z,0
2016-09-23T03:05:31.128Z,0
2016-09-23T03:06:31.660Z,0
2016-09-23T03:07:31.797Z,0
2016-09-23T03:08:31.267Z,0
2016-09-23T03:09:31.717Z,0
2016-09-23T03:10:31.477Z,0
2016-09-23T03:11:30.793Z,0
2016-09-23T03:12:31.256Z,0
2016-09-23T03:13:31.016Z,0
2016-09-23T03:14:31.464Z,0
2016-09-23T03:15:31.123Z,0
2016-09-23T03:16:31.185Z,0
2016-09-23T03:17:31.012Z,0
2016-09-23T03:18:30.971Z,0
2016-09-23T03:19:31.016Z,0
2016-09-23T03:20:30.954Z,0
2016-09-23T03:21:31.145Z,0
2016-09-23T03:22:31.095Z,0
2016-09-23T03:23:30.425Z,0
2016-09-23T03:24:30.793Z,0
2016-09-23T03:25:30.741Z,0
2016-09-23T03:26:30.573Z,0
2016-09-23T03:27:30.831Z,0
2016-09-23T03:28:29.978Z,0
2016-09-23T03:29:30.751Z,0
2016-09-23T03:30:30.785Z,0
2016-09-23T03:31:30.138Z,0
2016-09-23T03:32:30.390Z,0
2016-09-23T03:33:30.336Z,0
2016-09-23T03:34:30.296Z,0
2016-09-23T03:35:29.993Z,0
2016-09-23T03:36:30.224Z,0
2016-09-23T03:37:30.145Z,0
2016-09-23T03:38:29.784Z,0
2016-09-23T03:39:29.755Z,0
2016-09-23T03:40:30.206Z,0
2016-09-23T03:41:29.039Z,0
2016-09-23T03:42:29.294Z,0
2016-09-23T03:43:30.062Z,0
2016-09-23T03:44:30.123Z,0
2016-09-23T03:45:29.801Z,0
2016-09-23T03:46:29.915Z,0
2016-09-23T03:47:29.644Z,0
2016-09-23T03:48:29.311Z,0
2016-09-23T03:49:29.805Z,0
2016-09-23T03:50:29.925Z,0
2016-09-23T03:51:28.873Z,0
2016-09-23T03:52:29.109Z,0
2016-09-23T03:53:29.279Z,0
2016-09-23T03:54:29.520Z,0
2016-09-23T03:55:29.648Z,0
2016-09-23T03:56:29.629Z,0
2016-09-23T03:57:29.774Z,0
2016-09-23T03:58:28.819Z,0
2016-09-23T03:59:29.071Z,0
2016-09-23T04:00:28.920Z,0
2016-09-23T04:01:29.001Z,0
2016-09-23T04:02:28.917Z,0
2016-09-23T04:03:28.945Z,0
2016-09-23T04:04:28.556Z,0
2016-09-23T04:05:28.774Z,0
2016-09-23T04:06:28.634Z,0
2016-09-23T04:07:28.586Z,0
2016-09-23T04:08:28.832Z,0
2016-09-23T04:09:27.988Z,0
2016-09-23T04:10:28.526Z,0
2016-09-23T04:11:28.389Z,0
2016-09-23T04:12:28.386Z,0
2016-09-23T04:13:28.121Z,0
2016-09-23T04:14:28.356Z,0
2016-09-23T04:15:28.307Z,0
2016-09-23T04:16:27.642Z,0
2016-09-23T04:17:28.237Z,0
2016-09-23T04:18:27.525Z,0
2016-09-23T04:19:27.493Z,0
2016-09-23T04:20:28.154Z,0
2016-09-23T04:21:27.386Z,0
2016-09-23T04:22:27.965Z,0
2016-09-23T04:23:27.300Z,0
2016-09-23T04:24:27.542Z,0
2016-09-23T04:25:27.494Z,0
2016-09-23T04:26:27.665Z,0
2016-09-23T04:27:27.099Z,0
2016-09-23T04:28:27.053Z,0
2016-09-23T04:29:27.609Z,0
2016-09-23T04:30:27.620Z,0
2016-09-23T04:31:27.214Z,0
2016-09-23T04:32:27.160Z,0
2016-09-23T04:33:27.116Z,0
2016-09-23T04:34:27.074Z,0
2016-09-23T04:35:27.579Z,0
2016-09-23T04:36:27.490Z,0
2016-09-23T04:37:27.015Z,0
2016-09-23T04:38:27.588Z,0
2016-09-23T04:39:26.824Z,0
2016-09-23T04:40:26.778Z,0
2016-09-23T04:41:26.927Z,0
2016-09-23T04:42:26.663Z,0
2016-09-23T04:43:26.822Z,0
2016-09-23T04:44:27.166Z,0
2016-09-23T04:45:26.835Z,0
2016-09-23T04:46:26.486Z,0
2016-09-23T04:47:26.732Z,0
2016-09-23T04:48:27.125Z,0
2016-09-23T04:49:26.644Z,0
2016-09-23T04:50:26.609Z,0
2016-09-23T04:51:26.540Z,0
2016-09-23T04:52:26.367Z,0
2016-09-23T04:53:26.339Z,0
2016-09-23T04:54:26.590Z,0
2016-09-23T04:55:26.378Z,0
2016-09-23T04:56:25.374Z,0
2016-09-23T04:57:26.470Z,0
2016-09-23T04:58:26.514Z,0
2016-09-23T04:59:26.160Z,0
2016-09-23T05:00:25.820Z,4
2016-09-23T05:01:25.761Z,4
2016-09-23T05:02:25.706Z,4
2016-09-23T05:03:26.178Z,0
2016-09-23T05:04:25.904Z,4
2016-09-23T05:05:25.850Z,4
2016-09-23T05:06:24.888Z,4
2016-09-23T05:07:25.969Z,4
2016-09-23T05:08:25.409Z,8
2016-09-23T05:09:25.562Z,8
2016-09-23T05:10:25.505Z,12
2016-09-23T05:11:25.567Z,12
2016-09-23T05:12:25.217Z,12
2016-09-23T05:13:25.476Z,16
2016-09-23T05:14:25.130Z,16
2016-09-23T05:15:25.331Z,16
2016-09-23T05:16:25.310Z,20
2016-09-23T05:17:24.977Z,20
2016-09-23T05:18:25.217Z,24
2016-09-23T05:19:25.149Z,28
2016-09-23T05:20:25.345Z,28
2016-09-23T05:21:24.764Z,32
2016-09-23T05:22:24.407Z,36
2016-09-23T05:23:24.988Z,36
2016-09-23T05:24:24.949Z,40
2016-09-23T05:25:24.811Z,44
2016-09-23T05:26:25.106Z,44
2016-09-23T05:27:24.473Z,48
2016-09-23T05:28:24.644Z,56
2016-09-23T05:29:24.702Z,60
2016-09-23T05:30:24.618Z,60
2016-09-23T05:31:24.705Z,64
2016-09-23T05:32:23.619Z,68
2016-09-23T05:33:24.079Z,72
2016-09-23T05:34:24.128Z,80
2016-09-23T05:35:24.086Z,88
2016-09-23T05:36:38.810Z,92
2016-09-23T05:37:24.298Z,96
2016-09-23T05:38:24.165Z,104
2016-09-23T05:39:24.199Z,108
2016-09-23T05:40:23.833Z,112
2016-09-23T05:41:24.107Z,112
2016-09-23T05:42:23.737Z,116
2016-09-23T05:43:23.381Z,120
2016-09-23T05:44:23.651Z,120
2016-09-23T05:45:23.914Z,124
2016-09-23T05:46:23.543Z,124
2016-09-23T05:47:23.489Z,128
2016-09-23T05:48:23.154Z,128
2016-09-23T05:49:23.101Z,132
2016-09-23T05:50:23.656Z,132
2016-09-23T05:51:23.844Z,132
2016-09-23T05:52:23.568Z,140
2016-09-23T05:53:23.404Z,144
2016-09-23T05:54:23.444Z,148
2016-09-23T05:55:22.850Z,152
2016-09-23T05:56:23.644Z,156
2016-09-23T05:57:23.012Z,160
2016-09-23T05:58:23.036Z,164
2016-09-23T05:59:22.894Z,172
2016-09-23T06:00:22.543Z,172
2016-09-23T06:01:23.130Z,180
2016-09-23T06:02:23.067Z,180
2016-09-23T06:03:22.707Z,192
2016-09-23T06:04:22.369Z,196
2016-09-23T06:05:22.304Z,204
2016-09-23T06:06:22.551Z,212
2016-09-23T06:07:22.507Z,216
2016-09-23T06:08:22.669Z,224
2016-09-23T06:09:22.412Z,232
2016-09-23T06:10:22.058Z,236
2016-09-23T06:11:22.616Z,244
2016-09-23T06:12:22.456Z,248
2016-09-23T06:13:22.738Z,252
2016-09-23T06:14:22.554Z,256
2016-09-23T06:15:22.105Z,260
2016-09-23T06:16:22.054Z,264
2016-09-23T06:17:22.529Z,268
2016-09-23T06:18:21.669Z,276
2016-09-23T06:19:36.843Z,288
2016-09-23T06:20:22.195Z,292
2016-09-23T06:21:22.172Z,304
2016-09-23T06:22:21.766Z,312
2016-09-23T06:23:21.736Z,320
2016-09-23T06:24:21.725Z,324
2016-09-23T06:25:22.015Z,332
2016-09-23T06:26:21.273Z,336
2016-09-23T06:27:21.232Z,344
2016-09-23T06:28:21.481Z,352
2016-09-23T06:29:21.417Z,364
2016-09-23T06:30:21.702Z,372
2016-09-23T06:31:21.637Z,384
2016-09-23T06:32:21.291Z,388
2016-09-23T06:33:21.454Z,400
2016-09-23T06:34:21.224Z,404
2016-09-23T06:35:21.221Z,412
2016-09-23T06:36:21.408Z,416
2016-09-23T06:37:21.350Z,424
2016-09-23T06:38:20.999Z,428
2016-09-23T06:39:21.046Z,440
2016-09-23T06:40:20.867Z,448
2016-09-23T06:41:20.856Z,464
2016-09-23T06:42:20.556Z,476
2016-09-23T06:43:20.789Z,488
2016-09-23T06:44:20.696Z,500
2016-09-23T06:45:20.672Z,516
2016-09-23T06:46:21.129Z,528
2016-09-23T06:47:20.876Z,540
2016-09-23T06:48:20.793Z,556
2016-09-23T06:49:20.823Z,564
2016-09-23T06:50:20.605Z,584
2016-09-23T06:51:20.675Z,592
2016-09-23T06:52:20.093Z,612
2016-09-23T06:53:20.583Z,620
2016-09-23T06:54:20.512Z,628
2016-09-23T06:55:20.157Z,640
2016-09-23T06:56:20.105Z,652
2016-09-23T06:57:19.966Z,660
2016-09-23T06:58:20.544Z,672
2016-09-23T06:59:20.278Z,684
2016-09-23T07:00:20.231Z,696
2016-09-23T07:01:19.574Z,708
2016-09-23T07:02:19.864Z,716
2016-09-23T07:03:19.453Z,728
2016-09-23T07:04:20.059Z,740
2016-09-23T07:05:20.211Z,756
2016-09-23T07:06:19.938Z,768
2016-09-23T07:07:19.913Z,784
2016-09-23T07:08:19.856Z,796
2016-09-23T07:09:18.884Z,808
2016-09-23T07:10:19.742Z,824
2016-09-23T07:11:20.202Z,840
2016-09-23T07:12:19.683Z,860
2016-09-23T07:13:19.612Z,856
2016-09-23T07:14:19.251Z,820
2016-09-23T07:15:19.728Z,824
2016-09-23T07:16:19.167Z,836
2016-09-23T07:17:19.312Z,844
2016-09-23T07:18:19.366Z,844
2016-09-23T07:19:19.004Z,836
2016-09-23T07:20:19.460Z,820
2016-09-23T07:21:19.230Z,800
2016-09-23T07:22:19.597Z,792
2016-09-23T07:23:18.808Z,800
2016-09-23T07:24:18.982Z,816
2016-09-23T07:25:19.017Z,840
2016-09-23T07:26:18.989Z,856
2016-09-23T07:27:18.938Z,920
2016-09-23T07:28:18.594Z,916
2016-09-23T07:29:19.306Z,900
2016-09-23T07:30:18.498Z,888
2016-09-23T07:31:18.462Z,884
2016-09-23T07:32:18.329Z,888
2016-09-23T07:33:18.643Z,888
2016-09-23T07:34:18.680Z,888
2016-09-23T07:35:19.184Z,900
2016-09-23T07:36:17.897Z,920
2016-09-23T07:37:18.151Z,940
2016-09-23T07:38:19.291Z,956
2016-09-23T07:39:18.049Z,976
2016-09-23T07:40:18.315Z,984
2016-09-23T07:41:18.500Z,984
2016-09-23T07:42:18.920Z,1008
2016-09-23T07:43:19.077Z,1076
2016-09-23T07:44:18.013Z,1064
2016-09-23T07:45:18.272Z,1216
2016-09-23T07:46:17.710Z,1280
2016-09-23T07:47:18.188Z,1488
2016-09-23T07:48:17.976Z,1844
2016-09-23T07:49:17.969Z,1592
2016-09-23T07:50:17.536Z,1816
2016-09-23T07:51:17.988Z,2124
2016-09-23T07:52:17.973Z,2028
2016-09-23T07:53:17.699Z,2192
2016-09-23T07:54:17.331Z,2224
2016-09-23T07:55:17.327Z,2268
2016-09-23T07:56:17.566Z,2264
2016-09-23T07:57:17.520Z,2312
2016-09-23T07:58:16.822Z,2328
2016-09-23T07:59:17.611Z,2368
2016-09-23T08:00:17.374Z,2428
2016-09-23T08:01:17.314Z,2464
2016-09-23T08:02:18.282Z,2476
2016-09-23T08:03:17.704Z,2484
2016-09-23T08:04:16.781Z,2488
2016-09-23T08:05:16.843Z,2520
2016-09-23T08:06:18.305Z,2548
2016-09-23T08:07:16.716Z,2608
2016-09-23T08:08:16.761Z,2680
2016-09-23T08:09:16.849Z,2760
2016-09-23T08:10:16.968Z,2784
2016-09-23T08:11:16.534Z,2804
2016-09-23T08:12:16.477Z,2832
2016-09-23T08:13:16.130Z,2872
2016-09-23T08:14:16.689Z,2892
2016-09-23T08:15:16.629Z,2896
2016-09-23T08:16:16.479Z,2940
2016-09-23T08:17:16.754Z,2960
2016-09-23T08:18:16.706Z,2964
2016-09-23T08:19:16.404Z,2940
2016-09-23T08:20:16.068Z,2924
2016-09-23T08:21:16.442Z,2968
2016-09-23T08:22:16.315Z,3032
2016-09-23T08:23:15.975Z,3032
2016-09-23T08:24:16.246Z,3068
2016-09-23T08:25:16.266Z,3104
2016-09-23T08:26:15.493Z,3052
2016-09-23T08:27:16.264Z,3288
2016-09-23T08:28:16.017Z,3172
2016-09-23T08:29:15.973Z,3132
2016-09-23T08:30:16.168Z,2900
2016-09-23T08:31:16.119Z,2276
2016-09-23T08:32:15.717Z,2264
2016-09-23T08:33:15.529Z,1736
2016-09-23T08:34:15.515Z,1724
2016-09-23T08:35:15.947Z,1584
2016-09-23T08:36:16.261Z,1988
2016-09-23T08:37:16.210Z,1800
2016-09-23T08:38:15.641Z,1964
2016-09-23T08:39:15.570Z,1928
2016-09-23T08:40:15.681Z,1928
2016-09-23T08:41:15.423Z,2480
2016-09-23T08:42:15.727Z,2196
2016-09-23T08:43:15.565Z,2984
2016-09-23T08:44:16.904Z,2904
2016-09-23T08:45:15.329Z,2832
2016-09-23T08:46:15.275Z,2824
2016-09-23T08:47:15.000Z,2900
2016-09-23T08:48:15.517Z,2764
2016-09-23T08:49:15.427Z,2936
2016-09-23T08:50:14.874Z,2964
2016-09-23T08:51:14.916Z,2968
2016-09-23T08:52:14.914Z,3000
2016-09-23T08:53:14.805Z,2968
2016-09-23T08:54:14.952Z,3080
2016-09-23T08:55:13.805Z,3100
2016-09-23T08:56:14.685Z,3048
2016-09-23T08:57:14.651Z,3044
2016-09-23T08:58:14.066Z,3016
2016-09-23T08:59:14.820Z,3016
2016-09-23T09:00:14.714Z,3108
2016-09-23T09:01:14.266Z,3264
2016-09-23T09:02:14.491Z,3416
2016-09-23T09:03:14.516Z,3468
2016-09-23T09:04:14.612Z,3492
2016-09-23T09:05:13.660Z,3456
2016-09-23T09:06:14.522Z,3404
2016-09-23T09:07:14.189Z,3464
2016-09-23T09:08:13.707Z,3332
2016-09-23T09:09:13.466Z,3216
2016-09-23T09:10:14.084Z,2868
2016-09-23T09:11:28.588Z,3200
2016-09-23T09:12:13.323Z,3400
2016-09-23T09:13:13.281Z,3500
2016-09-23T09:14:13.885Z,3672
2016-09-23T09:15:14.036Z,3732
2016-09-23T09:16:13.441Z,3628
2016-09-23T09:17:13.378Z,3660
2016-09-23T09:18:13.859Z,3740
2016-09-23T09:19:12.973Z,3756
2016-09-23T09:20:13.590Z,3844
2016-09-23T09:21:13.515Z,3840
2016-09-23T09:22:13.381Z,3812
2016-09-23T09:23:15.733Z,3788
2016-09-23T09:24:13.378Z,3780
2016-09-23T09:25:13.561Z,4268
2016-09-23T09:26:12.900Z,4544
2016-09-23T09:27:13.280Z,4500
2016-09-23T09:28:13.415Z,3500
2016-09-23T09:29:13.178Z,2960
2016-09-23T09:30:13.175Z,2832
2016-09-23T09:31:13.083Z,2908
2016-09-23T09:32:12.691Z,2704
2016-09-23T09:33:13.226Z,2592
2016-09-23T09:34:13.157Z,2156
2016-09-23T09:35:13.003Z,2016
2016-09-23T09:36:12.941Z,2036
2016-09-23T09:37:12.514Z,2048
2016-09-23T09:38:12.735Z,2088
2016-09-23T09:39:12.694Z,2188
2016-09-23T09:40:12.650Z,2304
2016-09-23T09:41:12.317Z,2452
2016-09-23T09:42:12.253Z,2660
2016-09-23T09:43:12.731Z,2704
2016-09-23T09:44:12.458Z,2628
2016-09-23T09:45:12.312Z,2604
2016-09-23T09:46:12.111Z,2616
2016-09-23T09:47:12.008Z,2412
2016-09-23T09:48:12.279Z,3296
2016-09-23T09:49:11.917Z,2996
2016-09-23T09:50:11.549Z,2044
2016-09-23T09:51:11.833Z,2028
2016-09-23T09:52:12.505Z,3272
2016-09-23T09:53:12.094Z,2492
2016-09-23T09:54:11.675Z,3280
2016-09-23T09:55:12.237Z,3648
2016-09-23T09:56:11.888Z,3540
2016-09-23T09:57:11.883Z,3856
2016-09-23T09:58:11.819Z,3800
2016-09-23T09:59:11.672Z,2756
2016-09-23T10:00:11.942Z,2428
2016-09-23T10:01:11.363Z,2312
2016-09-23T10:02:11.294Z,2280
2016-09-23T10:03:11.601Z,2604
2016-09-23T10:04:10.928Z,3400
2016-09-23T10:05:11.187Z,2592
2016-09-23T10:06:11.447Z,2744
2016-09-23T10:07:11.419Z,3064
2016-09-23T10:08:11.369Z,3368
2016-09-23T10:09:11.315Z,2292
2016-09-23T10:10:11.271Z,2152
2016-09-23T10:11:10.945Z,2044
2016-09-23T10:12:11.383Z,2028
2016-09-23T10:13:10.917Z,2172
2016-09-23T10:14:11.400Z,3104
2016-09-23T10:15:11.246Z,2264
2016-09-23T10:16:10.688Z,2256
2016-09-23T10:17:10.544Z,2300
2016-09-23T10:18:11.320Z,2416
2016-09-23T10:19:11.043Z,2332
2016-09-23T10:20:11.012Z,2128
2016-09-23T10:21:10.764Z,2172
2016-09-23T10:22:10.918Z,2288
2016-09-23T10:23:10.672Z,2436
2016-09-23T10:24:10.630Z,2564
2016-09-23T10:25:10.599Z,1992
2016-09-23T10:26:10.528Z,1976
2016-09-23T10:27:09.908Z,1980
2016-09-23T10:28:10.449Z,1940
2016-09-23T10:29:10.667Z,2080
2016-09-23T10:30:10.610Z,3140
2016-09-23T10:31:10.002Z,2344
2016-09-23T10:32:10.252Z,3176
2016-09-23T10:33:10.625Z,2440
2016-09-23T10:34:09.875Z,2560
2016-09-23T10:35:10.326Z,2632
2016-09-23T10:36:10.022Z,3104
2016-09-23T10:37:10.058Z,3064
2016-09-23T10:38:09.744Z,3096
2016-09-23T10:39:09.342Z,3028
2016-09-23T10:40:09.732Z,3032
2016-09-23T10:41:09.842Z,3084
2016-09-23T10:42:09.831Z,3072
2016-09-23T10:43:09.755Z,3140
2016-09-23T10:44:09.761Z,1788
2016-09-23T10:45:09.368Z,3384
2016-09-23T10:46:09.335Z,3536
2016-09-23T10:47:09.623Z,3620
2016-09-23T10:48:09.454Z,3612
2016-09-23T10:49:09.678Z,3332
2016-09-23T10:50:09.733Z,3184
2016-09-23T10:51:08.504Z,3196
2016-09-23T10:52:09.390Z,3248
2016-09-23T10:53:09.407Z,3588
2016-09-23T10:54:09.268Z,3672
2016-09-23T10:55:09.210Z,3564
2016-09-23T10:56:08.571Z,3612
2016-09-23T10:57:08.827Z,3624
2016-09-23T10:58:08.499Z,3644
2016-09-23T10:59:08.740Z,3712
2016-09-23T11:00:08.699Z,3644
2016-09-23T11:01:08.659Z,3736
2016-09-23T11:02:08.838Z,2000
2016-09-23T11:03:08.937Z,2028
2016-09-23T11:04:08.515Z,2708
2016-09-23T11:05:08.498Z,3068
2016-09-23T11:06:08.936Z,2404
2016-09-23T11:07:08.391Z,3712
2016-09-23T11:08:08.188Z,3876
2016-09-23T11:09:08.598Z,4280
2016-09-23T11:10:08.260Z,3996
2016-09-23T11:11:07.961Z,2952
2016-09-23T11:12:08.189Z,2536
2016-09-23T11:13:08.116Z,3696
2016-09-23T11:14:08.366Z,1860
2016-09-23T11:15:08.025Z,1816
2016-09-23T11:16:08.278Z,1896
2016-09-23T11:17:08.218Z,2032
2016-09-23T11:18:07.570Z,4040
2016-09-23T11:19:08.129Z,3884
2016-09-23T11:20:07.993Z,2008
2016-09-23T11:21:07.727Z,1804
2016-09-23T11:22:07.705Z,1832
2016-09-23T11:23:07.645Z,1772
2016-09-23T11:24:07.896Z,2088
2016-09-23T11:25:07.545Z,4256
2016-09-23T11:26:07.513Z,3900
2016-09-23T11:27:07.772Z,1908
2016-09-23T11:28:07.101Z,1852
2016-09-23T11:29:07.390Z,2340
2016-09-23T11:30:07.014Z,2000
2016-09-23T11:31:07.578Z,1928
2016-09-23T11:32:07.948Z,3624
2016-09-23T11:33:07.229Z,2856
2016-09-23T11:34:07.448Z,4016
2016-09-23T11:35:07.457Z,3768
2016-09-23T11:36:07.553Z,1792
2016-09-23T11:37:07.330Z,1576
2016-09-23T11:38:07.258Z,1488
2016-09-23T11:39:07.112Z,1476
2016-09-23T11:40:07.091Z,1572
2016-09-23T11:41:07.580Z,3132
2016-09-23T11:42:06.770Z,2240
2016-09-23T11:43:07.073Z,1748
2016-09-23T11:44:06.535Z,2588
2016-09-23T11:45:07.011Z,2396
2016-09-23T11:46:07.262Z,3292
2016-09-23T11:47:07.168Z,3196
2016-09-23T11:48:06.616Z,3352
2016-09-23T11:49:06.181Z,4016
2016-09-23T11:50:06.767Z,2804
2016-09-23T11:51:06.115Z,3900
2016-09-23T11:52:06.645Z,2896
2016-09-23T11:53:06.728Z,3900
2016-09-23T11:54:06.667Z,3084
2016-09-23T11:55:06.840Z,1596
2016-09-23T11:56:06.185Z,1584
2016-09-23T11:57:06.435Z,1608
2016-09-23T11:58:06.370Z,2260
2016-09-23T11:59:06.057Z,3924
2016-09-23T12:00:06.505Z,2704
2016-09-23T12:01:05.947Z,3784
2016-09-23T12:02:05.576Z,3760
2016-09-23T12:03:06.033Z,4492
2016-09-23T12:04:06.136Z,4464
2016-09-23T12:05:06.052Z,3704
2016-09-23T12:06:05.707Z,3008
2016-09-23T12:07:05.704Z,2876
2016-09-23T12:08:05.631Z,3360
2016-09-23T12:09:06.287Z,3768
2016-09-23T12:10:06.242Z,4144
2016-09-23T12:11:06.194Z,3884
2016-09-23T12:12:05.449Z,4728
2016-09-23T12:13:05.471Z,3732
2016-09-23T12:14:05.681Z,3504
2016-09-23T12:15:05.043Z,3844
2016-09-23T12:16:05.294Z,3448
2016-09-23T12:17:05.927Z,3176
2016-09-23T12:18:05.486Z,3924
2016-09-23T12:19:05.729Z,4540
2016-09-23T12:20:05.401Z,4552
2016-09-23T12:21:05.056Z,4448
2016-09-23T12:22:05.316Z,4152
2016-09-23T12:23:05.343Z,4032
2016-09-23T12:24:07.304Z,4028
2016-09-23T12:25:05.733Z,4204
2016-09-23T12:26:04.879Z,4028
2016-09-23T12:27:05.238Z,4028
2016-09-23T12:28:04.133Z,3884
2016-09-23T12:29:04.907Z,3744
2016-09-23T12:30:04.970Z,3848
2016-09-23T12:31:05.799Z,3424
2016-09-23T12:32:04.849Z,2724
2016-09-23T12:33:05.067Z,3588
2016-09-23T12:34:04.808Z,3436
2016-09-23T12:35:04.787Z,2668
2016-09-23T12:36:04.908Z,2960
2016-09-23T12:37:04.715Z,2248
2016-09-23T12:38:04.764Z,2276
2016-09-23T12:39:04.574Z,2504
2016-09-23T12:40:04.428Z,2344
2016-09-23T12:41:04.699Z,2388
2016-09-23T12:42:04.427Z,2448
2016-09-23T12:43:04.108Z,3872
2016-09-23T12:44:03.865Z,3748
2016-09-23T12:45:03.927Z,3592
2016-09-23T12:46:04.028Z,3744
2016-09-23T12:47:04.242Z,3800
2016-09-23T12:48:04.589Z,1816
2016-09-23T12:49:03.839Z,1660
2016-09-23T12:50:04.083Z,1564
2016-09-23T12:51:04.309Z,1472
2016-09-23T12:52:04.210Z,1428
2016-09-23T12:53:03.757Z,1388
2016-09-23T12:54:03.891Z,1328
2016-09-23T12:55:03.549Z,1280
2016-09-23T12:56:04.013Z,1244
2016-09-23T12:57:03.818Z,1220
2016-09-23T12:58:03.423Z,1200
2016-09-23T12:59:02.776Z,1232
2016-09-23T13:00:03.320Z,1272
2016-09-23T13:01:03.591Z,1272
2016-09-23T13:02:03.611Z,1240
2016-09-23T13:03:03.558Z,1200
2016-09-23T13:04:03.469Z,1172
2016-09-23T13:05:03.449Z,1172
2016-09-23T13:06:03.430Z,1192
2016-09-23T13:07:02.429Z,1220
2016-09-23T13:08:03.011Z,1264
2016-09-23T13:09:04.075Z,1304
2016-09-23T13:10:03.243Z,1340
2016-09-23T13:11:03.404Z,1368
2016-09-23T13:12:02.919Z,1404
2016-09-23T13:13:02.955Z,1460
2016-09-23T13:14:03.021Z,1520
2016-09-23T13:15:02.462Z,1588
2016-09-23T13:16:03.224Z,1760
2016-09-23T13:17:02.595Z,1896
2016-09-23T13:18:02.236Z,1968
2016-09-23T13:19:02.493Z,2000
2016-09-23T13:20:02.452Z,1992
2016-09-23T13:21:02.934Z,1948
2016-09-23T13:22:02.918Z,1864
2016-09-23T13:23:02.555Z,1772
2016-09-23T13:24:02.885Z,1680
2016-09-23T13:25:02.547Z,1628
2016-09-23T13:26:02.496Z,1604
2016-09-23T13:27:02.456Z,1588
2016-09-23T13:28:02.143Z,1608
2016-09-23T13:29:02.061Z,1676
2016-09-23T13:30:02.217Z,1776
2016-09-23T13:31:02.037Z,2200
2016-09-23T13:32:02.130Z,1940
2016-09-23T13:33:01.860Z,1844
2016-09-23T13:34:01.832Z,2344
2016-09-23T13:35:02.112Z,3560
2016-09-23T13:36:02.067Z,3832
2016-09-23T13:37:02.005Z,3824
2016-09-23T13:38:02.208Z,3940
2016-09-23T13:39:02.214Z,3988
2016-09-23T13:40:01.541Z,2176
2016-09-23T13:41:01.888Z,4128
2016-09-23T13:42:01.172Z,4116
2016-09-23T13:43:01.428Z,3960
2016-09-23T13:44:01.400Z,3860
2016-09-23T13:45:01.714Z,3720
2016-09-23T13:46:01.581Z,3532
2016-09-23T13:47:01.007Z,3668
2016-09-23T13:48:01.507Z,3660
2016-09-23T13:49:01.051Z,3612
2016-09-23T13:50:01.632Z,1384
2016-09-23T13:51:01.616Z,1264
2016-09-23T13:52:01.378Z,1204
2016-09-23T13:53:01.016Z,1156
2016-09-23T13:54:01.339Z,1120
2016-09-23T13:55:01.816Z,1100